Time;durP1;ratioP1;P1;durP2;ratioP2;P2;SDS_P1;SDS_P2;PMS_P1;PMS_P2;Temp;Humidity;BMP_temperature;BMP_pressure;BME280_temperature;BME280_humidity;BME280_pressure;Samples;Min_cycle;Max_cycle;Signal;HPM_P1;HPM_P2
2023/04/14 00:00:22;;;;;;;4.68;1.90;;;;;;;3.58;100.00;98017.53;5014472;28;20065;-76
2023/04/14 00:02:47;;;;;;;7.07;1.80;;;;;;;3.56;100.00;98023.06;5013496;28;20490;-76
2023/04/14 00:05:13;;;;;;;3.78;1.92;;;;;;;3.53;100.00;98025.25;5018515;28;20487;-76
2023/04/14 00:07:38;;;;;;;5.53;2.20;;;;;;;3.45;100.00;98024.31;5015909;28;20022;-76
2023/04/14 00:10:03;;;;;;;6.75;2.30;;;;;;;3.55;100.00;98040.13;5014714;28;20499;-76
2023/04/14 00:12:29;;;;;;;5.90;2.45;;;;;;;3.51;100.00;98031.63;5012149;28;20018;-76
2023/04/14 00:14:54;;;;;;;6.60;2.13;;;;;;;3.50;100.00;98021.94;5016068;28;20479;-76
2023/04/14 00:17:19;;;;;;;3.58;1.88;;;;;;;3.45;100.00;98024.31;5011935;28;20402;-76
2023/04/14 00:19:45;;;;;;;4.15;2.20;;;;;;;3.45;100.00;98020.81;5012161;28;20035;-76
2023/04/14 00:22:11;;;;;;;5.03;2.03;;;;;;;3.39;100.00;98003.63;5013039;28;20030;-76
2023/04/14 00:24:41;;;;;;;4.47;2.05;;;;;;;3.52;100.00;98019.09;5015625;28;20025;-76
2023/04/14 00:27:07;;;;;;;3.92;2.20;;;;;;;3.55;100.00;98015.22;5015727;28;20021;-76
2023/04/14 00:29:32;;;;;;;3.08;1.80;;;;;;;3.58;100.00;98028.25;5013088;28;20551;-76
2023/04/14 00:31:57;;;;;;;4.28;1.77;;;;;;;3.56;100.00;98039.09;5012109;28;20123;-76
2023/04/14 00:34:23;;;;;;;3.30;1.90;;;;;;;3.51;100.00;98034.31;5026214;28;20030;-76
2023/04/14 00:36:48;;;;;;;8.00;2.45;;;;;;;3.37;100.00;98019.00;5009167;28;20117;-76
2023/04/14 00:39:13;;;;;;;5.28;2.03;;;;;;;3.57;100.00;98062.19;5021086;28;20037;-76
2023/04/14 00:41:39;;;;;;;3.60;1.83;;;;;;;3.54;100.00;98051.84;5014479;28;20022;-76
2023/04/14 00:44:04;;;;;;;6.82;2.47;;;;;;;3.45;100.00;98039.53;5014301;28;20060;-76
2023/04/14 00:46:30;;;;;;;11.13;3.80;;;;;;;3.55;100.00;98052.66;5012592;28;20431;-76
2023/04/14 00:48:55;;;;;;;13.05;5.28;;;;;;;3.49;100.00;98063.06;5008205;28;20049;-75
2023/04/14 00:51:21;;;;;;;11.77;4.45;;;;;;;3.36;100.00;98051.28;5011397;28;20498;-76
2023/04/14 00:53:48;;;;;;;10.43;4.25;;;;;;;3.48;100.00;98060.56;5014319;28;20025;-76
2023/04/14 00:56:14;;;;;;;7.68;3.13;;;;;;;3.57;100.00;98058.69;5015127;28;20081;-76
2023/04/14 00:58:40;;;;;;;5.28;2.85;;;;;;;3.46;100.00;98060.75;5012994;28;20036;-76
2023/04/14 01:01:05;;;;;;;6.80;2.55;;;;;;;3.45;100.00;98058.25;5006598;28;20018;-75
2023/04/14 01:03:31;;;;;;;5.00;2.40;;;;;;;3.37;100.00;98058.28;5014273;28;20487;-76
2023/04/14 01:05:56;;;;;;;5.63;2.25;;;;;;;3.36;100.00;98044.09;5015924;28;20036;-76
2023/04/14 01:08:22;;;;;;;5.40;2.60;;;;;;;3.41;100.00;98054.28;5014994;28;20026;-75
2023/04/14 01:11:10;;;;;;;11.45;2.70;;;;;;;3.30;100.00;98055.47;5016074;28;20037;-76
2023/04/14 01:13:48;;;;;;;9.07;2.80;;;;;;;3.33;100.00;98056.97;5017429;28;20040;-76
2023/04/14 01:16:20;;;;;;;5.18;2.28;;;;;;;3.39;100.00;98081.16;5007090;28;20522;-75
2023/04/14 01:19:07;;;;;;;6.70;2.83;;;;;;;3.41;100.00;98078.34;5009719;28;20030;-76
2023/04/14 01:21:40;;;;;;;10.25;2.90;;;;;;;3.31;100.00;98067.03;5022351;28;20484;-75
2023/04/14 01:24:45;;;;;;;6.35;2.75;;;;;;;3.42;100.00;98086.16;5010042;28;20018;-76
2023/04/14 01:27:19;;;;;;;6.03;3.03;;;;;;;3.49;100.00;98080.97;5001668;28;20038;-76
2023/04/14 01:29:59;;;;;;;6.60;2.75;;;;;;;3.42;100.00;98078.13;4996002;28;20030;-76
2023/04/14 01:32:28;;;;;;;6.35;2.40;;;;;;;3.46;100.00;98086.66;5008995;28;20034;-75
2023/04/14 01:34:56;;;;;;;5.85;2.38;;;;;;;3.40;100.00;98092.69;5003765;28;20030;-76
2023/04/14 01:37:33;;;;;;;10.65;2.60;;;;;;;3.37;100.00;98093.03;5009404;28;20056;-76
2023/04/14 01:40:13;;;;;;;9.93;2.20;;;;;;;3.38;100.00;98092.88;5012814;28;20029;-76
2023/04/14 01:42:43;;;;;;;4.68;2.70;;;;;;;3.37;100.00;98095.72;5013566;28;20030;-75
2023/04/14 01:45:15;;;;;;;9.27;2.50;;;;;;;3.32;100.00;98098.91;5025399;28;20036;-76
2023/04/14 01:47:41;;;;;;;5.35;2.20;;;;;;;3.28;100.00;98082.41;5030224;28;20017;-77
2023/04/14 01:50:08;;;;;;;9.10;2.97;;;;;;;3.26;100.00;98092.44;5033833;28;20030;-77
2023/04/14 01:52:36;;;;;;;6.53;2.63;;;;;;;3.10;100.00;98081.81;5037120;28;20032;-77
2023/04/14 01:55:05;;;;;;;4.65;2.65;;;;;;;3.05;100.00;98087.66;5030608;28;20152;-76
2023/04/14 01:57:33;;;;;;;6.00;2.80;;;;;;;2.93;100.00;98085.53;5021856;28;20064;-76
2023/04/14 01:59:59;;;;;;;9.57;3.00;;;;;;;2.77;100.00;98091.78;5011489;28;20030;-76
2023/04/14 02:02:26;;;;;;;4.43;2.50;;;;;;;2.91;100.00;98090.22;5012567;28;20162;-76
2023/04/14 02:04:56;;;;;;;4.22;2.65;;;;;;;2.84;100.00;98098.94;5011206;28;20041;-76
2023/04/14 02:07:22;;;;;;;8.63;2.90;;;;;;;2.88;100.00;98095.91;5009534;28;20038;-76
2023/04/14 02:09:49;;;;;;;8.32;3.72;;;;;;;2.96;100.00;98103.91;5013589;28;20018;-76
2023/04/14 02:12:17;;;;;;;4.32;2.97;;;;;;;2.93;100.00;98093.56;5013969;28;20033;-76
2023/04/14 02:14:45;;;;;;;5.85;3.45;;;;;;;2.93;100.00;98096.22;5012301;28;20025;-76
2023/04/14 02:17:11;;;;;;;6.60;3.08;;;;;;;2.89;100.00;98085.06;5008737;28;20105;-76
2023/04/14 02:19:38;;;;;;;6.00;3.20;;;;;;;2.86;100.00;98109.47;5007087;28;20595;-76
2023/04/14 02:22:04;;;;;;;7.75;3.10;;;;;;;2.72;100.00;98102.13;5013880;28;20107;-76
2023/04/14 02:24:29;;;;;;;6.47;3.28;;;;;;;2.70;100.00;98114.81;5013471;28;20452;-76
2023/04/14 02:27:16;;;;;;;10.75;3.38;;;;;;;2.63;100.00;98112.00;5011809;28;20037;-76
2023/04/14 02:29:47;;;;;;;6.97;3.78;;;;;;;2.52;100.00;98107.03;5011161;28;20499;-77
2023/04/14 02:32:22;;;;;;;6.53;3.40;;;;;;;2.45;100.00;98095.34;5010033;28;20376;-77
2023/04/14 02:34:53;;;;;;;9.07;3.90;;;;;;;2.56;100.00;98119.03;5008858;28;20057;-76
2023/04/14 02:37:26;;;;;;;8.00;4.43;;;;;;;2.51;100.00;98102.69;5009121;28;20037;-76
2023/04/14 02:39:57;;;;;;;7.85;4.00;;;;;;;2.47;100.00;98082.69;5013661;28;20065;-76
2023/04/14 02:42:26;;;;;;;7.60;4.30;;;;;;;2.76;100.00;98114.97;5013468;28;20029;-76
2023/04/14 02:44:59;;;;;;;7.43;3.80;;;;;;;2.70;100.00;98101.47;5011752;28;20026;-76
2023/04/14 02:47:55;;;;;;;7.93;4.50;;;;;;;2.90;100.00;98113.44;5003281;28;20065;-76
2023/04/14 02:50:23;;;;;;;10.68;4.82;;;;;;;2.87;100.00;98111.13;5005146;28;20034;-76
2023/04/14 02:52:52;;;;;;;15.35;6.93;;;;;;;2.88;100.00;98118.13;5011856;28;20036;-76
2023/04/14 02:55:19;;;;;;;11.70;7.00;;;;;;;2.87;100.00;98110.28;5004975;28;20029;-76
2023/04/14 02:57:46;;;;;;;12.75;7.63;;;;;;;2.93;100.00;98117.59;5006139;28;20034;-76
2023/04/14 03:00:12;;;;;;;6.50;4.53;;;;;;;2.87;100.00;98111.13;5011266;28;20018;-75
2023/04/14 03:02:38;;;;;;;7.75;2.92;;;;;;;2.72;100.00;98096.78;5010829;28;20040;-75
2023/04/14 03:05:05;;;;;;;4.63;2.88;;;;;;;2.61;100.00;98095.31;5008295;28;20030;-77
2023/04/14 03:07:33;;;;;;;4.28;2.40;;;;;;;2.54;100.00;98092.50;5009664;28;20061;-76
2023/04/14 03:09:59;;;;;;;4.78;2.83;;;;;;;2.48;100.00;98103.84;5011720;28;20470;-76
2023/04/14 03:12:27;;;;;;;7.32;3.70;;;;;;;2.46;100.00;98095.16;5007975;28;20037;-76
2023/04/14 03:14:53;;;;;;;6.32;3.60;;;;;;;2.37;100.00;98105.03;5010587;28;20369;-76
2023/04/14 03:17:20;;;;;;;8.85;3.63;;;;;;;2.24;100.00;98110.06;5015228;28;20021;-76
2023/04/14 03:19:47;;;;;;;8.20;4.65;;;;;;;2.28;100.00;98119.41;5016635;28;20112;-78
2023/04/14 03:22:14;;;;;;;10.35;3.85;;;;;;;2.18;100.00;98116.06;5008729;28;20517;-78
2023/04/14 03:24:43;;;;;;;10.80;4.18;;;;;;;2.09;100.00;98109.03;5025572;28;20089;-79
2023/04/14 03:27:13;;;;;;;11.27;4.70;;;;;;;2.03;100.00;98123.06;5007311;28;20022;-78
2023/04/14 03:29:42;;;;;;;9.45;4.50;;;;;;;1.89;100.00;98133.38;5015057;28;20156;-77
2023/04/14 03:32:08;;;;;;;7.35;4.20;;;;;;;1.75;100.00;98126.00;5020147;28;20018;-78
2023/04/14 03:34:40;;;;;;;5.90;3.65;;;;;;;1.48;100.00;98095.16;5010457;28;20042;-78
2023/04/14 03:37:07;;;;;;;11.82;4.93;;;;;;;1.79;100.00;98138.03;5006906;28;20065;-79
2023/04/14 03:39:37;;;;;;;13.15;5.50;;;;;;;1.67;100.00;98136.66;5011027;28;20113;-79
2023/04/14 03:42:06;;;;;;;9.90;5.70;;;;;;;1.73;100.00;98130.69;5014863;28;20022;-78
2023/04/14 03:44:35;;;;;;;9.25;5.85;;;;;;;1.52;100.00;98123.97;5009521;28;20034;-77
2023/04/14 03:47:02;;;;;;;12.50;6.20;;;;;;;1.66;100.00;98137.69;5010969;28;20022;-77
2023/04/14 03:49:29;;;;;;;14.02;6.28;;;;;;;1.60;100.00;98141.84;5004291;28;20506;-79
2023/04/14 03:51:58;;;;;;;14.57;6.43;;;;;;;1.59;100.00;98126.00;5005617;28;20038;-79
2023/04/14 03:54:26;;;;;;;10.93;5.60;;;;;;;1.59;100.00;98128.66;5002582;28;20448;-77
2023/04/14 03:56:55;;;;;;;9.93;4.00;;;;;;;1.74;100.00;98141.19;5016088;28;20030;-75
2023/04/14 03:59:24;;;;;;;6.55;3.80;;;;;;;1.59;100.00;98129.47;5011591;28;20030;-78
2023/04/14 04:01:51;;;;;;;8.63;3.92;;;;;;;1.60;100.00;98147.16;5009089;28;20025;-76
2023/04/14 04:04:17;;;;;;;11.65;3.72;;;;;;;1.62;100.00;98144.31;5013927;28;20026;-76
2023/04/14 04:06:43;;;;;;;10.13;4.25;;;;;;;1.53;100.00;98132.81;5012252;28;20034;-81
2023/04/14 04:09:13;;;;;;;8.10;4.38;;;;;;;1.45;100.00;98130.94;5006928;28;20046;-81
2023/04/14 04:11:42;;;;;;;7.13;3.75;;;;;;;1.41;100.00;98121.59;5014291;28;20037;-78
2023/04/14 04:14:08;;;;;;;5.78;3.15;;;;;;;1.38;100.00;98129.91;5015297;28;20034;-81
2023/04/14 04:16:35;;;;;;;6.85;3.75;;;;;;;1.37;100.00;98149.59;5017499;28;20092;-80
2023/04/14 04:19:14;;;;;;;8.45;3.95;;;;;;;1.25;100.00;98143.69;4997602;28;20026;-78
2023/04/14 04:24:14;;;;;;;9.38;3.80;;;;;;;1.19;100.00;98149.69;5043878;28;20064;-69
2023/04/14 04:26:40;;;;;;;9.40;3.65;;;;;;;1.20;100.00;98145.19;5019312;28;20051;-68
2023/04/14 04:29:06;;;;;;;7.68;3.30;;;;;;;1.29;100.00;98152.22;5021588;28;20025;-65
2023/04/14 04:31:32;;;;;;;6.00;3.38;;;;;;;1.22;100.00;98146.69;5021324;28;20449;-65
2023/04/14 04:33:58;;;;;;;8.57;3.15;;;;;;;1.07;100.00;98148.28;5015020;28;20080;-65
2023/04/14 04:36:25;;;;;;;6.40;3.83;;;;;;;0.95;100.00;98145.06;5032255;28;20412;-65
2023/04/14 04:38:51;;;;;;;11.05;4.10;;;;;;;1.02;100.00;98148.78;5010145;28;20076;-65
2023/04/14 04:41:21;;;;;;;9.18;4.20;;;;;;;1.00;100.00;98149.94;5011449;28;20025;-65
2023/04/14 04:43:46;;;;;;;11.18;5.05;;;;;;;0.99;100.00;98146.41;5016540;28;20029;-65
2023/04/14 04:46:49;;;;;;;10.75;4.53;;;;;;;0.95;100.00;98150.41;5015179;28;20025;-65
2023/04/14 04:49:14;;;;;;;13.27;4.78;;;;;;;1.17;100.00;98148.16;5008442;28;20029;-65
2023/04/14 04:51:40;;;;;;;8.98;4.68;;;;;;;1.14;100.00;98145.81;5018783;28;20036;-65
2023/04/14 04:54:06;;;;;;;11.95;3.50;;;;;;;1.10;100.00;98147.94;5022145;28;20040;-65
2023/04/14 04:56:32;;;;;;;13.13;4.47;;;;;;;1.21;100.00;98161.00;5011198;28;20107;-65
2023/04/14 04:59:01;;;;;;;8.32;3.25;;;;;;;1.16;100.00;98155.34;5012996;28;20068;-65
2023/04/14 05:01:26;;;;;;;8.35;2.38;;;;;;;1.24;100.00;98166.03;5014325;28;20481;-65
2023/04/14 05:03:52;;;;;;;6.82;3.40;;;;;;;1.31;100.00;98160.91;5010250;28;20174;-65
2023/04/14 05:06:18;;;;;;;11.57;3.70;;;;;;;1.26;100.00;98164.03;5006522;28;20397;-65
2023/04/14 05:08:44;;;;;;;7.38;2.95;;;;;;;1.25;100.00;98156.19;5026674;28;20107;-65
2023/04/14 05:11:09;;;;;;;8.55;3.80;;;;;;;1.26;100.00;98168.53;5012488;28;20473;-65
2023/04/14 05:13:35;;;;;;;13.15;3.30;;;;;;;1.21;100.00;98152.19;5014600;28;20036;-65
2023/04/14 05:16:08;;;;;;;10.70;3.40;;;;;;;1.22;100.00;98164.50;5014451;28;20027;-65
2023/04/14 05:18:35;;;;;;;11.20;3.53;;;;;;;1.27;100.00;98160.38;5027373;28;20026;-70
2023/04/14 05:21:08;;;;;;;16.85;3.80;;;;;;;1.38;100.00;98163.75;5013315;28;20155;-70
2023/04/14 05:23:36;;;;;;;12.63;3.58;;;;;;;1.49;100.00;98172.28;5017815;28;20184;-69
2023/04/14 05:26:03;;;;;;;19.83;4.32;;;;;;;1.65;100.00;98168.00;5022829;28;20029;-69
2023/04/14 05:28:28;;;;;;;7.97;3.67;;;;;;;1.81;100.00;98168.06;5011048;28;20385;-65
2023/04/14 05:30:54;;;;;;;17.13;4.20;;;;;;;1.97;100.00;98164.56;5026300;28;20021;-65
2023/04/14 05:33:20;;;;;;;13.93;4.25;;;;;;;2.16;100.00;98171.44;5024484;28;20465;-65
2023/04/14 05:35:45;;;;;;;10.75;3.85;;;;;;;2.39;100.00;98167.09;5008498;28;20515;-65
2023/04/14 05:38:13;;;;;;;7.68;4.00;;;;;;;2.68;100.00;98170.25;5022258;28;20024;-65
2023/04/14 05:40:39;;;;;;;10.85;3.20;;;;;;;2.93;100.00;98168.38;5025564;28;20029;-65
2023/04/14 05:43:05;;;;;;;10.65;3.63;;;;;;;3.39;100.00;98160.56;5015687;28;20038;-65
2023/04/14 05:45:30;;;;;;;12.93;3.30;;;;;;;4.72;100.00;98153.13;5011874;28;20444;-65
2023/04/14 05:47:56;;;;;;;8.15;2.90;;;;;;;7.47;100.00;98118.97;5021782;28;20033;-65
2023/04/14 05:50:21;;;;;;;4.78;2.38;;;;;;;9.34;100.00;98104.59;5014955;28;20341;-65
2023/04/14 05:52:50;;;;;;;9.05;2.50;;;;;;;10.31;100.00;98110.78;5012694;28;20124;-65
2023/04/14 05:55:19;;;;;;;12.27;3.00;;;;;;;11.49;100.00;98105.53;5012675;28;20108;-65
2023/04/14 05:57:45;;;;;;;9.52;3.40;;;;;;;12.35;100.00;98109.84;5012586;28;20116;-65
2023/04/14 06:00:11;;;;;;;11.63;2.50;;;;;;;13.44;100.00;98116.75;5031172;28;20384;-65
2023/04/14 06:02:41;;;;;;;5.82;2.72;;;;;;;14.71;86.53;98115.69;5016217;28;20029;-63
2023/04/14 06:05:07;;;;;;;7.15;2.42;;;;;;;14.63;75.56;98116.09;5010757;28;20464;-64
2023/04/14 06:07:34;;;;;;;8.15;2.67;;;;;;;15.39;71.57;98126.53;5029447;28;20040;-63
2023/04/14 06:09:59;;;;;;;11.43;3.42;;;;;;;15.55;70.44;98121.03;5014833;28;20022;-63
2023/04/14 06:12:25;;;;;;;9.32;3.38;;;;;;;15.45;65.54;98120.91;5032447;28;20473;-64
2023/04/14 06:14:50;;;;;;;8.43;3.50;;;;;;;16.59;63.77;98121.16;5007856;28;20025;-63
2023/04/14 06:17:16;;;;;;;7.35;3.58;;;;;;;16.52;61.71;98117.81;5015695;28;20057;-63
2023/04/14 06:19:41;;;;;;;7.78;3.30;;;;;;;16.73;59.15;98114.16;5004055;28;20128;-63
2023/04/14 06:22:07;;;;;;;9.77;2.95;;;;;;;17.47;58.83;98121.53;5024771;28;20044;-64
2023/04/14 06:24:33;;;;;;;7.38;2.85;;;;;;;17.93;57.87;98110.03;5006572;28;20116;-64
2023/04/14 06:27:02;;;;;;;7.00;2.78;;;;;;;17.98;53.84;98120.19;5011799;28;20083;-63
2023/04/14 06:29:28;;;;;;;;;;;;;;;19.20;52.65;98117.63;5017595;28;20447;-63
2023/04/14 06:31:53;;;;;;;5.22;2.17;;;;;;;20.51;48.59;98108.34;5013179;28;19913;-63
2023/04/14 06:34:19;;;;;;;8.70;2.53;;;;;;;21.93;45.88;98103.72;5028804;28;20469;-63
2023/04/14 06:36:44;;;;;;;7.93;2.30;;;;;;;22.96;43.14;98112.19;5011891;28;20359;-63
2023/04/14 06:39:09;;;;;;;9.35;2.60;;;;;;;23.53;40.58;98101.00;5018875;28;20369;-67
2023/04/14 06:41:35;;;;;;;7.82;2.50;;;;;;;23.62;41.44;98097.22;5005841;28;20033;-66
2023/04/14 06:44:00;;;;;;;5.35;1.90;;;;;;;22.15;42.01;98100.44;5011346;28;20082;-63
2023/04/14 06:46:26;;;;;;;8.80;2.30;;;;;;;21.58;42.87;98103.03;5006815;28;20025;-63
2023/04/14 06:48:51;;;;;;;6.60;2.00;;;;;;;22.01;43.38;98092.88;5012593;28;20112;-63
2023/04/14 06:51:17;;;;;;;5.97;2.00;;;;;;;22.09;42.36;98092.22;5014158;28;20025;-62
2023/04/14 06:53:44;;;;;;;6.70;2.03;;;;;;;22.90;40.48;98094.91;5033676;28;20136;-67
2023/04/14 06:56:10;;;;;;;6.53;2.13;;;;;;;23.08;40.32;98090.50;5017937;28;20503;-67
2023/04/14 06:58:35;;;;;;;5.45;2.00;;;;;;;22.13;41.37;98095.19;5013592;28;20026;-67
2023/04/14 07:01:02;;;;;;;8.05;2.03;;;;;;;22.69;40.79;98080.63;5047696;22;20128;-79
2023/04/14 07:03:29;;;;;;;5.60;1.95;;;;;;;21.48;43.54;98087.44;5025117;28;20062;-83
2023/04/14 07:06:05;;;;;;;4.30;1.98;;;;;;;22.43;42.52;98082.16;5017286;28;20100;-83
2023/04/14 07:08:31;;;;;;;5.32;2.13;;;;;;;22.74;41.45;98077.78;5020901;28;20022;-80
2023/04/14 07:11:02;;;;;;;5.43;1.60;;;;;;;23.07;41.25;98077.00;5022264;28;20022;-81
2023/04/14 07:13:28;;;;;;;3.88;1.52;;;;;;;23.92;38.56;98036.16;5016881;28;20025;-83
2023/04/14 07:15:53;;;;;;;4.60;1.73;;;;;;;24.28;38.76;98059.09;5018746;28;20489;-85
2023/04/14 07:18:19;;;;;;;6.43;1.40;;;;;;;25.12;36.52;98031.91;5018513;28;20021;-86
2023/04/14 07:20:44;;;;;;;5.10;1.50;;;;;;;27.21;34.51;98055.25;5015973;28;20113;-85
2023/04/14 07:23:10;;;;;;;6.85;1.85;;;;;;;28.00;33.11;98010.44;5022891;28;20070;-86
2023/04/14 07:25:35;;;;;;;3.33;1.13;;;;;;;29.40;32.05;98041.47;5019193;28;20041;-77
2023/04/14 07:28:01;;;;;;;8.88;1.80;;;;;;;30.34;30.23;98032.16;5028309;28;20030;-77
2023/04/14 07:30:27;;;;;;;5.50;1.70;;;;;;;29.14;31.89;98042.56;5030564;28;20021;-77
2023/04/14 07:32:52;;;;;;;7.80;1.35;;;;;;;25.98;34.20;98047.25;5031181;28;20403;-76
2023/04/14 07:35:17;;;;;;;4.95;1.40;;;;;;;24.83;35.19;98026.84;5008845;28;20136;-76
2023/04/14 07:37:43;;;;;;;5.07;1.67;;;;;;;27.57;33.46;98039.28;5004569;28;20030;-76
2023/04/14 07:40:08;;;;;;;5.05;1.63;;;;;;;28.82;32.23;98027.47;5018460;28;20057;-77
2023/04/14 07:42:34;;;;;;;5.75;1.02;;;;;;;28.12;31.20;98028.03;5028028;28;20030;-76
2023/04/14 07:45:01;;;;;;;4.60;1.20;;;;;;;28.84;30.58;98042.66;5011661;28;20033;-77
2023/04/14 07:47:27;;;;;;;3.15;1.23;;;;;;;30.55;29.95;98026.41;5011464;28;20026;-77
2023/04/14 07:49:53;;;;;;;5.07;1.10;;;;;;;31.27;28.62;98040.38;5023163;28;20024;-76
2023/04/14 07:52:18;;;;;;;2.95;1.00;;;;;;;31.83;27.62;98028.19;5025055;28;20029;-77
2023/04/14 07:54:44;;;;;;;6.00;1.42;;;;;;;31.09;28.10;98047.47;5012481;28;20402;-76
2023/04/14 07:57:10;;;;;;;4.93;1.30;;;;;;;31.55;28.31;98048.72;5031967;28;20037;-79
2023/04/14 07:59:37;;;;;;;4.38;1.23;;;;;;;30.78;28.46;98035.84;5024630;28;20339;-80
2023/04/14 08:02:02;;;;;;;5.97;1.52;;;;;;;32.03;27.45;98035.50;5027318;28;20040;-79
2023/04/14 08:04:28;;;;;;;5.55;1.10;;;;;;;31.69;26.43;98031.47;5021476;28;20025;-79
2023/04/14 08:06:53;;;;;;;4.70;1.35;;;;;;;32.17;27.20;98020.22;5016836;28;20028;-78
2023/04/14 08:09:18;;;;;;;3.80;1.10;;;;;;;31.35;27.99;98047.75;5020349;28;20021;-75
2023/04/14 08:11:44;;;;;;;4.53;1.50;;;;;;;32.95;27.27;98040.69;5036689;28;20079;-82
2023/04/14 08:14:10;;;;;;;5.80;1.45;;;;;;;32.76;27.64;98047.13;5039562;28;20121;-80
2023/04/14 08:16:35;;;;;;;4.70;1.02;;;;;;;33.94;26.12;98040.88;5025033;28;20495;-80
2023/04/14 08:19:02;;;;;;;6.10;1.38;;;;;;;34.64;25.99;98035.88;5018971;28;20017;-81
2023/04/14 08:21:28;;;;;;;5.80;1.30;;;;;;;33.64;25.32;98032.34;5035010;28;20026;-76
2023/04/14 08:23:53;;;;;;;6.55;1.52;;;;;;;30.33;27.58;98017.38;5024690;28;20025;-77
2023/04/14 08:26:20;;;;;;;4.30;1.25;;;;;;;29.26;29.16;98025.03;5025552;28;20040;-78
2023/04/14 08:28:45;;;;;;;6.00;1.50;;;;;;;31.23;27.69;98022.69;5018841;28;20051;-79
2023/04/14 08:31:12;;;;;;;3.90;1.08;;;;;;;32.86;27.14;98034.50;5033115;28;20429;-77
2023/04/14 08:33:38;;;;;;;5.20;1.50;;;;;;;31.03;27.73;98032.16;5031563;28;20395;-77
2023/04/14 08:36:04;;;;;;;4.15;1.23;;;;;;;31.05;28.22;98027.81;5023768;28;20498;-75
2023/04/14 08:38:29;;;;;;;4.40;1.10;;;;;;;31.47;27.60;98021.75;5029710;28;20033;-78
2023/04/14 08:40:55;;;;;;;8.43;1.15;;;;;;;31.20;27.11;98015.03;5022603;28;20436;-77
2023/04/14 08:43:21;;;;;;;5.35;1.48;;;;;;;31.35;27.80;98008.63;5033697;28;20032;-74
2023/04/14 08:45:50;;;;;;;7.40;1.35;;;;;;;32.60;26.48;98007.19;5033282;28;20491;-74
2023/04/14 08:48:17;;;;;;;;;;;;;;;33.63;25.91;98018.72;5029344;28;20052;-74
2023/04/14 08:50:55;;;;;;;5.80;1.52;;;;;;;34.15;24.93;98017.94;5027810;28;19913;-74
2023/04/14 08:53:22;;;;;;;;;;;;;;;35.44;24.70;98015.88;5032129;28;20032;-74
2023/04/14 08:55:49;;;;;;;4.40;1.33;;;;;;;34.93;24.72;98011.72;5014743;28;20393;-75
2023/04/14 08:58:15;;;;;;;5.65;1.98;;;;;;;34.99;24.57;97998.94;5031552;28;20068;-75
2023/04/14 09:00:40;;;;;;;7.43;1.45;;;;;;;35.17;24.41;98013.22;5023682;28;20029;-75
2023/04/14 09:03:07;;;;;;;5.40;1.50;;;;;;;36.30;23.91;98011.69;5019335;28;20168;-76
2023/04/14 09:05:33;;;;;;;5.60;1.45;;;;;;;34.64;24.90;98002.97;5015046;28;20033;-75
2023/04/14 09:07:59;;;;;;;4.20;1.33;;;;;;;36.82;23.12;98005.91;5032068;28;20079;-75
2023/04/14 09:10:25;;;;;;;5.88;1.40;;;;;;;35.43;23.97;98014.25;5031277;28;20026;-75
2023/04/14 09:12:52;;;;;;;4.82;1.27;;;;;;;36.00;23.58;98014.72;5012720;28;20076;-76
2023/04/14 09:15:19;;;;;;;4.28;1.10;;;;;;;36.66;23.60;97997.81;5014793;28;20394;-75
2023/04/14 09:17:44;;;;;;;5.30;1.20;;;;;;;37.69;22.47;98002.84;5027369;28;20057;-75
2023/04/14 09:20:11;;;;;;;5.07;1.38;;;;;;;36.40;22.92;97994.03;5030566;28;20021;-75
2023/04/14 09:22:36;;;;;;;4.95;1.40;;;;;;;35.74;24.29;98001.69;5028367;28;20025;-76
2023/04/14 09:25:03;;;;;;;6.77;1.43;;;;;;;34.62;23.42;97994.13;5031615;28;20032;-75
2023/04/14 09:27:28;;;;;;;3.60;1.10;;;;;;;35.88;23.39;97986.88;5026660;28;20319;-75
2023/04/14 09:29:56;;;;;;;4.25;1.30;;;;;;;36.61;22.93;97993.34;5036519;28;20025;-75
2023/04/14 09:32:22;;;;;;;4.03;1.10;;;;;;;35.95;23.83;97986.94;5031528;28;20098;-75
2023/04/14 09:34:52;;;;;;;4.63;1.15;;;;;;;34.75;24.23;98005.09;5013827;28;20124;-75
2023/04/14 09:37:19;;;;;;;4.07;1.20;;;;;;;34.43;24.83;98002.69;5022101;28;20172;-75
2023/04/14 09:39:50;;;;;;;4.72;1.35;;;;;;;33.74;25.23;97997.25;5031390;28;20643;-74
2023/04/14 09:42:16;;;;;;;5.28;1.20;;;;;;;34.90;24.07;97990.81;5027493;28;20026;-75
2023/04/14 09:44:57;;;;;;;3.78;1.13;;;;;;;34.63;23.35;97990.09;5030230;28;20025;-74
2023/04/14 09:47:23;;;;;;;4.97;1.25;;;;;;;34.70;23.24;97997.81;5013095;28;20026;-75
2023/04/14 09:50:02;;;;;;;5.35;1.27;;;;;;;33.38;23.77;97989.06;5035480;28;20211;-76
2023/04/14 09:52:38;;;;;;;6.30;1.40;;;;;;;34.33;23.15;97989.31;5025980;28;20382;-74
2023/04/14 09:55:09;;;;;;;4.05;1.23;;;;;;;34.44;22.65;97990.25;5024694;28;20102;-74
2023/04/14 09:57:36;;;;;;;3.30;1.20;;;;;;;34.05;23.97;97998.91;5030035;28;20025;-75
2023/04/14 10:00:04;;;;;;;2.63;0.98;;;;;;;36.07;22.88;97992.25;5030906;28;20071;-74
2023/04/14 10:02:29;;;;;;;;;;;;;;;36.39;22.29;98000.91;5030942;28;20029;-74
2023/04/14 10:05:05;;;;;;;4.53;1.30;;;;;;;37.97;21.29;97984.28;5030089;28;19927;-73
2023/04/14 10:07:30;;;;;;;5.15;1.30;;;;;;;37.35;21.08;97990.31;5019711;28;20029;-70
2023/04/14 10:09:56;;;;;;;4.25;1.15;;;;;;;37.91;21.39;97983.03;5008621;28;20497;-70
2023/04/14 10:12:21;;;;;;;3.80;1.00;;;;;;;37.49;21.04;97984.66;5029663;28;20039;-74
2023/04/14 10:14:46;;;;;;;4.30;1.10;;;;;;;36.75;21.39;97970.03;5031278;28;20514;-70
2023/04/14 10:17:12;;;;;;;4.30;1.02;;;;;;;37.46;21.18;97983.47;5024301;28;20299;-70
2023/04/14 10:19:38;;;;;;;5.00;1.20;;;;;;;37.58;21.46;97971.00;5025146;28;20454;-70
2023/04/14 10:22:07;;;;;;;4.88;1.42;;;;;;;33.80;22.67;97973.31;5030722;28;20521;-70
2023/04/14 10:24:33;;;;;;;4.82;1.60;;;;;;;35.23;22.70;97971.47;5030621;28;20429;-70
2023/04/14 10:27:02;;;;;;;4.00;1.40;;;;;;;36.68;22.09;97966.41;5023235;28;20033;-70
2023/04/14 10:29:28;;;;;;;4.95;1.30;;;;;;;36.75;21.93;97957.97;5029479;28;20021;-70
2023/04/14 10:31:59;;;;;;;4.78;1.30;;;;;;;35.81;22.74;97933.34;5021587;28;20141;-70
2023/04/14 10:34:24;;;;;;;6.40;1.20;;;;;;;36.46;21.92;97949.38;5030648;28;20035;-70
2023/04/14 10:36:50;;;;;;;3.90;1.20;;;;;;;35.14;22.34;97945.69;5028370;28;20033;-70
2023/04/14 10:39:23;;;;;;;4.28;1.20;;;;;;;36.10;21.97;97939.97;5026113;28;20029;-70
2023/04/14 10:41:52;;;;;;;5.60;1.15;;;;;;;36.77;21.90;97942.28;5024363;28;20029;-70
2023/04/14 10:44:27;;;;;;;4.50;1.20;;;;;;;37.80;20.52;97920.16;5024216;28;20049;-70
2023/04/14 10:46:59;;;;;;;4.68;1.20;;;;;;;36.42;22.10;97932.47;5010094;28;20029;-70
2023/04/14 10:49:28;;;;;;;6.28;1.15;;;;;;;37.11;20.99;97922.22;5027746;28;20031;-71
2023/04/14 10:51:53;;;;;;;5.40;1.40;;;;;;;38.68;20.75;97926.72;5022217;28;20036;-71
2023/04/14 10:54:19;;;;;;;4.00;1.20;;;;;;;38.17;20.93;97918.84;5025264;28;20034;-71
2023/04/14 10:57:11;;;;;;;5.15;1.20;;;;;;;35.30;21.70;97929.38;5005019;28;20035;-71
2023/04/14 10:59:41;;;;;;;4.40;1.30;;;;;;;38.39;21.46;97911.91;5029837;28;20471;-72
2023/04/14 11:02:43;;;;;;;4.72;1.40;;;;;;;38.46;21.24;97911.88;5016834;28;20155;-74
2023/04/14 11:05:10;;;;;;;3.05;1.08;;;;;;;37.52;20.98;97904.06;5020742;28;20029;-71
2023/04/14 11:07:57;;;;;;;3.88;1.15;;;;;;;38.26;20.46;97902.28;5026470;28;20129;-71
2023/04/14 11:10:23;;;;;;;7.28;1.35;;;;;;;39.23;20.14;97894.81;5026742;28;20505;-71
2023/04/14 11:12:56;;;;;;;6.47;1.40;;;;;;;38.24;20.83;97896.22;5010767;28;20033;-71
2023/04/14 11:15:21;;;;;;;5.43;1.35;;;;;;;38.51;19.83;97896.53;5017184;28;20028;-72
2023/04/14 11:17:47;;;;;;;3.67;1.15;;;;;;;37.42;19.99;97888.75;5022599;28;20029;-71
2023/04/14 11:20:16;;;;;;;2.80;1.00;;;;;;;38.06;20.19;97891.44;5019128;28;20036;-70
2023/04/14 11:22:46;;;;;;;3.22;1.17;;;;;;;40.46;19.61;97885.84;5006627;28;20021;-70
2023/04/14 11:25:16;;;;;;;3.90;1.20;;;;;;;40.60;19.24;97879.97;5020335;28;20037;-71
2023/04/14 11:27:43;;;;;;;4.78;1.20;;;;;;;40.96;18.95;97880.25;5027215;28;20398;-70
2023/04/14 11:30:13;;;;;;;4.45;1.20;;;;;;;40.41;18.99;97880.66;5024646;28;20037;-72
2023/04/14 11:32:45;;;;;;;4.22;1.20;;;;;;;36.85;21.19;97879.06;5029316;28;20063;-69
2023/04/14 11:35:10;;;;;;;3.65;1.30;;;;;;;32.65;24.05;97876.03;5030139;28;20137;-72
2023/04/14 11:37:36;;;;;;;5.05;1.10;;;;;;;29.44;26.76;97889.91;5028601;28;20415;-72
2023/04/14 11:40:04;;;;;;;4.57;1.30;;;;;;;25.90;29.96;97888.13;5033565;28;20532;-72